sensor_id;sensor_type;location;lat;lon;timestamp;pressure;altitude;pressure_sealevel;temperature;humidity
80401;BME280;69727;53.132;8.230;2024-02-15T00:00:14;101520.97;;;11.03;98.46
80401;BME280;69727;53.132;8.230;2024-02-15T00:02:40;101524.59;;;11.11;98.43
80401;BME280;69727;53.132;8.230;2024-02-15T00:05:06;101519.56;;;11.08;98.29
80401;BME280;69727;53.132;8.230;2024-02-15T00:07:33;101519.38;;;11.09;98.42
80401;BME280;69727;53.132;8.230;2024-02-15T00:10:00;101514.13;;;11.16;98.29
80401;BME280;69727;53.132;8.230;2024-02-15T00:12:25;101516.53;;;11.11;98.48
80401;BME280;69727;53.132;8.230;2024-02-15T00:14:51;101524.03;;;11.15;98.30
80401;BME280;69727;53.132;8.230;2024-02-15T00:17:16;101517.56;;;11.24;98.20
80401;BME280;69727;53.132;8.230;2024-02-15T00:19:43;101526.53;;;11.17;98.40
80401;BME280;69727;53.132;8.230;2024-02-15T00:22:09;101524.41;;;11.12;98.45
80401;BME280;69727;53.132;8.230;2024-02-15T00:24:36;101528.09;;;11.11;98.66
80401;BME280;69727;53.132;8.230;2024-02-15T00:27:02;101522.09;;;11.24;98.27
80401;BME280;69727;53.132;8.230;2024-02-15T00:29:28;101521.94;;;11.25;98.17
80401;BME280;69727;53.132;8.230;2024-02-15T00:31:54;101531.75;;;11.18;98.51
80401;BME280;69727;53.132;8.230;2024-02-15T00:34:20;101528.09;;;11.11;98.62
80401;BME280;69727;53.132;8.230;2024-02-15T00:36:46;101524.03;;;11.15;98.56
80401;BME280;69727;53.132;8.230;2024-02-15T00:39:11;101520.16;;;11.18;98.48
80401;BME280;69727;53.132;8.230;2024-02-15T00:41:39;101525.63;;;11.24;98.07
80401;BME280;69727;53.132;8.230;2024-02-15T00:44:10;101522.38;;;11.14;98.65
80401;BME280;69727;53.132;8.230;2024-02-15T00:46:38;101517.75;;;11.23;98.48
80401;BME280;69727;53.132;8.230;2024-02-15T00:49:04;101521.66;;;11.20;98.26
80401;BME280;69727;53.132;8.230;2024-02-15T00:51:33;101533.59;;;11.18;98.48
80401;BME280;69727;53.132;8.230;2024-02-15T00:54:00;101528.56;;;11.15;98.68
80401;BME280;69727;53.132;8.230;2024-02-15T00:56:26;101531.97;;;11.09;99.01
80401;BME280;69727;53.132;8.230;2024-02-15T00:58:53;101543.56;;;11.09;99.16
80401;BME280;69727;53.132;8.230;2024-02-15T01:01:18;101544.78;;;11.07;99.00
80401;BME280;69727;53.132;8.230;2024-02-15T01:03:43;101545.34;;;11.17;98.69
80401;BME280;69727;53.132;8.230;2024-02-15T01:06:09;101542.50;;;11.18;99.05
80401;BME280;69727;53.132;8.230;2024-02-15T01:08:34;101544.34;;;11.18;98.94
80401;BME280;69727;53.132;8.230;2024-02-15T01:10:59;101533.50;;;11.26;98.54
80401;BME280;69727;53.132;8.230;2024-02-15T01:13:25;101534.06;;;11.21;98.50
80401;BME280;69727;53.132;8.230;2024-02-15T01:15:50;101543.59;;;11.24;98.40
80401;BME280;69727;53.132;8.230;2024-02-15T01:18:16;101540.25;;;11.22;98.42
80401;BME280;69727;53.132;8.230;2024-02-15T01:20:41;101545.84;;;11.20;98.40
80401;BME280;69727;53.132;8.230;2024-02-15T01:23:07;101545.19;;;11.18;98.48
80401;BME280;69727;53.132;8.230;2024-02-15T01:25:33;101547.31;;;11.23;98.70
80401;BME280;69727;53.132;8.230;2024-02-15T01:27:58;101545.63;;;11.22;98.54
80401;BME280;69727;53.132;8.230;2024-02-15T01:30:24;101550.19;;;11.21;98.23
80401;BME280;69727;53.132;8.230;2024-02-15T01:32:49;101546.19;;;11.17;98.64
80401;BME280;69727;53.132;8.230;2024-02-15T01:35:15;101544.44;;;11.24;98.57
80401;BME280;69727;53.132;8.230;2024-02-15T01:37:40;101543.59;;;11.24;98.39
80401;BME280;69727;53.132;8.230;2024-02-15T01:40:06;101542.31;;;11.20;98.64
80401;BME280;69727;53.132;8.230;2024-02-15T01:42:32;101536.03;;;11.27;98.45
80401;BME280;69727;53.132;8.230;2024-02-15T01:44:57;101538.22;;;11.24;98.30
80401;BME280;69727;53.132;8.230;2024-02-15T01:47:23;101541.75;;;11.24;98.45
80401;BME280;69727;53.132;8.230;2024-02-15T01:49:49;101548.31;;;11.22;98.30
80401;BME280;69727;53.132;8.230;2024-02-15T01:52:15;101542.31;;;11.20;98.54
80401;BME280;69727;53.132;8.230;2024-02-15T01:54:42;101547.31;;;11.23;98.42
80401;BME280;69727;53.132;8.230;2024-02-15T01:57:07;101539.44;;;11.21;98.56
80401;BME280;69727;53.132;8.230;2024-02-15T01:59:33;101540.25;;;11.22;98.62
80401;BME280;69727;53.132;8.230;2024-02-15T02:01:59;101532.00;;;11.23;98.53
80401;BME280;69727;53.132;8.230;2024-02-15T02:04:25;101535.19;;;11.27;98.39
80401;BME280;69727;53.132;8.230;2024-02-15T02:06:51;101539.91;;;11.25;98.52
80401;BME280;69727;53.132;8.230;2024-02-15T02:09:21;101531.84;;;11.25;98.09
80401;BME280;69727;53.132;8.230;2024-02-15T02:11:47;101521.53;;;11.28;98.28
80401;BME280;69727;53.132;8.230;2024-02-15T02:14:13;101508.66;;;11.24;98.08
80401;BME280;69727;53.132;8.230;2024-02-15T02:16:39;101502.19;;;11.18;98.28
80401;BME280;69727;53.132;8.230;2024-02-15T02:19:05;101511.84;;;11.27;98.39
80401;BME280;69727;53.132;8.230;2024-02-15T02:21:35;101513.38;;;11.22;98.01
80401;BME280;69727;53.132;8.230;2024-02-15T02:24:03;101507.28;;;11.28;98.13
80401;BME280;69727;53.132;8.230;2024-02-15T02:26:33;101514.31;;;11.29;97.93
80401;BME280;69727;53.132;8.230;2024-02-15T02:29:00;101519.25;;;11.25;97.89
80401;BME280;69727;53.132;8.230;2024-02-15T02:31:35;101529.72;;;11.20;97.99
80401;BME280;69727;53.132;8.230;2024-02-15T02:34:00;101526.81;;;11.22;98.32
80401;BME280;69727;53.132;8.230;2024-02-15T02:36:26;101523.75;;;11.10;98.15
80401;BME280;69727;53.132;8.230;2024-02-15T02:38:52;101517.28;;;11.19;98.47
80401;BME280;69727;53.132;8.230;2024-02-15T02:41:17;101515.44;;;11.20;98.13
80401;BME280;69727;53.132;8.230;2024-02-15T02:43:44;101535.94;;;11.21;98.05
80401;BME280;69727;53.132;8.230;2024-02-15T02:46:11;101526.47;;;11.25;97.97
80401;BME280;69727;53.132;8.230;2024-02-15T02:48:37;101522.75;;;11.26;97.93
80401;BME280;69727;53.132;8.230;2024-02-15T02:51:03;101525.28;;;11.27;97.72
80401;BME280;69727;53.132;8.230;2024-02-15T02:53:28;101530.34;;;11.22;97.80
80401;BME280;69727;53.132;8.230;2024-02-15T02:55:56;101532.41;;;11.20;97.88
80401;BME280;69727;53.132;8.230;2024-02-15T02:58:22;101542.50;;;11.18;97.58
80401;BME280;69727;53.132;8.230;2024-02-15T03:00:48;101539.31;;;11.15;97.66
80401;BME280;69727;53.132;8.230;2024-02-15T03:03:15;101540.16;;;11.15;97.63
80401;BME280;69727;53.132;8.230;2024-02-15T03:05:40;101538.84;;;11.11;97.97
80401;BME280;69727;53.132;8.230;2024-02-15T03:08:08;101538.13;;;11.17;97.73
80401;BME280;69727;53.132;8.230;2024-02-15T03:10:34;101533.75;;;11.16;97.82
80401;BME280;69727;53.132;8.230;2024-02-15T03:12:59;101532.28;;;11.14;97.91
80401;BME280;69727;53.132;8.230;2024-02-15T03:15:24;101524.59;;;11.11;97.64
80401;BME280;69727;53.132;8.230;2024-02-15T03:17:50;101526.59;;;11.09;97.82
80401;BME280;69727;53.132;8.230;2024-02-15T03:20:17;101531.25;;;11.15;97.70
80401;BME280;69727;53.132;8.230;2024-02-15T03:22:54;101535.06;;;11.06;97.35
80401;BME280;69727;53.132;8.230;2024-02-15T03:25:20;101532.53;;;11.04;97.72
80401;BME280;69727;53.132;8.230;2024-02-15T03:27:55;101538.66;;;10.98;97.89
80401;BME280;69727;53.132;8.230;2024-02-15T03:30:22;101537.53;;;10.92;97.81
80401;BME280;69727;53.132;8.230;2024-02-15T03:32:49;101541.63;;;11.03;97.59
80401;BME280;69727;53.132;8.230;2024-02-15T03:35:17;101537.75;;;11.06;97.25
80401;BME280;69727;53.132;8.230;2024-02-15T03:37:42;101536.13;;;10.96;97.49
80401;BME280;69727;53.132;8.230;2024-02-15T03:40:08;101540.91;;;10.86;97.69
80401;BME280;69727;53.132;8.230;2024-02-15T03:42:35;101542.91;;;10.92;97.44
80401;BME280;69727;53.132;8.230;2024-02-15T03:45:04;101546.88;;;10.96;96.96
80401;BME280;69727;53.132;8.230;2024-02-15T03:47:34;101544.38;;;10.95;96.80
80401;BME280;69727;53.132;8.230;2024-02-15T03:50:07;101539.00;;;10.95;96.27
80401;BME280;69727;53.132;8.230;2024-02-15T03:52:35;101554.59;;;10.99;96.40
80401;BME280;69727;53.132;8.230;2024-02-15T03:55:00;101553.44;;;10.94;96.41
80401;BME280;69727;53.132;8.230;2024-02-15T03:57:27;101549.75;;;10.95;96.81
80401;BME280;69727;53.132;8.230;2024-02-15T03:59:53;101550.56;;;10.95;96.37
80401;BME280;69727;53.132;8.230;2024-02-15T04:02:20;101553.75;;;10.99;96.42
80401;BME280;69727;53.132;8.230;2024-02-15T04:04:45;101535.56;;;11.01;96.42
80401;BME280;69727;53.132;8.230;2024-02-15T04:07:15;101545.69;;;10.99;96.48
80401;BME280;69727;53.132;8.230;2024-02-15T04:09:44;101551.81;;;11.08;96.15
80401;BME280;69727;53.132;8.230;2024-02-15T04:12:10;101552.19;;;11.05;95.75
80401;BME280;69727;53.132;8.230;2024-02-15T04:14:37;101551.81;;;11.08;95.74
80401;BME280;69727;53.132;8.230;2024-02-15T04:17:04;101546.25;;;11.09;95.85
80401;BME280;69727;53.132;8.230;2024-02-15T04:19:30;101549.13;;;11.08;96.04
80401;BME280;69727;53.132;8.230;2024-02-15T04:21:56;101545.50;;;11.00;96.16
80401;BME280;69727;53.132;8.230;2024-02-15T04:24:21;101546.88;;;10.96;96.54
80401;BME280;69727;53.132;8.230;2024-02-15T04:26:48;101553.88;;;11.06;96.59
80401;BME280;69727;53.132;8.230;2024-02-15T04:29:17;101554.50;;;11.08;96.73
80401;BME280;69727;53.132;8.230;2024-02-15T04:31:45;101550.50;;;11.03;96.85
80401;BME280;69727;53.132;8.230;2024-02-15T04:34:17;101554.94;;;10.96;97.00
80401;BME280;69727;53.132;8.230;2024-02-15T04:36:47;101556.97;;;10.94;96.91
80401;BME280;69727;53.132;8.230;2024-02-15T04:39:16;101552.59;;;10.93;97.21
80401;BME280;69727;53.132;8.230;2024-02-15T04:41:52;101559.84;;;10.93;97.31
80401;BME280;69727;53.132;8.230;2024-02-15T04:44:17;101552.91;;;10.98;97.24
80401;BME280;69727;53.132;8.230;2024-02-15T04:46:45;101547.72;;;10.97;97.21
80401;BME280;69727;53.132;8.230;2024-02-15T04:49:12;101550.41;;;10.97;97.39
80401;BME280;69727;53.132;8.230;2024-02-15T04:51:38;101555.06;;;11.03;97.33
80401;BME280;69727;53.132;8.230;2024-02-15T04:54:06;101556.72;;;11.04;97.42
80401;BME280;69727;53.132;8.230;2024-02-15T04:56:32;101549.22;;;10.99;97.33
80401;BME280;69727;53.132;8.230;2024-02-15T04:58:58;101551.06;;;10.99;97.51
80401;BME280;69727;53.132;8.230;2024-02-15T05:01:23;101555.88;;;11.03;97.24
80401;BME280;69727;53.132;8.230;2024-02-15T05:03:49;101551.25;;;10.97;97.64
80401;BME280;69727;53.132;8.230;2024-02-15T05:06:14;101552.25;;;10.96;97.50
80401;BME280;69727;53.132;8.230;2024-02-15T05:08:40;101554.47;;;10.93;97.82
80401;BME280;69727;53.132;8.230;2024-02-15T05:11:13;101552.31;;;10.88;98.29
80401;BME280;69727;53.132;8.230;2024-02-15T05:13:47;101562.81;;;10.98;97.95
80401;BME280;69727;53.132;8.230;2024-02-15T05:16:16;101550.88;;;11.00;97.91
80401;BME280;69727;53.132;8.230;2024-02-15T05:18:41;101544.97;;;11.05;97.56
80401;BME280;69727;53.132;8.230;2024-02-15T05:21:07;101556.16;;;11.09;97.69
80401;BME280;69727;53.132;8.230;2024-02-15T05:23:36;101553.09;;;10.97;97.92
80401;BME280;69727;53.132;8.230;2024-02-15T05:26:02;101555.06;;;11.03;98.05
80401;BME280;69727;53.132;8.230;2024-02-15T05:28:29;101545.88;;;10.97;98.03
80401;BME280;69727;53.132;8.230;2024-02-15T05:31:09;101547.38;;;11.00;98.09
80401;BME280;69727;53.132;8.230;2024-02-15T05:33:37;101545.88;;;10.97;98.32
80401;BME280;69727;53.132;8.230;2024-02-15T05:36:08;101548.50;;;11.06;98.13
80401;BME280;69727;53.132;8.230;2024-02-15T05:38:34;101543.84;;;10.99;98.70
80401;BME280;69727;53.132;8.230;2024-02-15T05:40:59;101538.38;;;11.08;98.68
80401;BME280;69727;53.132;8.230;2024-02-15T05:43:25;101534.03;;;11.07;98.26
80401;BME280;69727;53.132;8.230;2024-02-15T05:45:51;101538.75;;;11.05;98.59
80401;BME280;69727;53.132;8.230;2024-02-15T05:48:17;101535.41;;;11.02;98.42
80401;BME280;69727;53.132;8.230;2024-02-15T05:50:43;101536.25;;;11.03;98.92
80401;BME280;69727;53.132;8.230;2024-02-15T05:53:08;101531.34;;;11.07;98.77
80401;BME280;69727;53.132;8.230;2024-02-15T05:55:34;101534.50;;;11.10;98.87
80401;BME280;69727;53.132;8.230;2024-02-15T05:58:02;101525.16;;;11.06;98.86
80401;BME280;69727;53.132;8.230;2024-02-15T06:00:28;101530.31;;;11.08;98.88
80401;BME280;69727;53.132;8.230;2024-02-15T06:02:55;101526.81;;;11.07;98.81
80401;BME280;69727;53.132;8.230;2024-02-15T06:05:21;101523.28;;;11.07;98.81
80401;BME280;69727;53.132;8.230;2024-02-15T06:07:47;101525.78;;;11.08;99.06
80401;BME280;69727;53.132;8.230;2024-02-15T06:10:12;101525.25;;;11.13;98.80
80401;BME280;69727;53.132;8.230;2024-02-15T06:12:38;101510.97;;;11.12;98.92
80401;BME280;69727;53.132;8.230;2024-02-15T06:15:04;101517.19;;;11.13;99.08
80401;BME280;69727;53.132;8.230;2024-02-15T06:17:32;101510.41;;;11.17;99.05
80401;BME280;69727;53.132;8.230;2024-02-15T06:19:57;101506.72;;;11.18;98.76
80401;BME280;69727;53.132;8.230;2024-02-15T06:22:23;101503.09;;;11.11;98.92
80401;BME280;69727;53.132;8.230;2024-02-15T06:24:50;101501.59;;;11.08;99.01
80401;BME280;69727;53.132;8.230;2024-02-15T06:27:15;101499.09;;;11.07;99.45
80401;BME280;69727;53.132;8.230;2024-02-15T06:29:41;101510.13;;;11.12;99.36
80401;BME280;69727;53.132;8.230;2024-02-15T06:32:24;101506.97;;;11.08;99.58
80401;BME280;69727;53.132;8.230;2024-02-15T06:35:08;101498.91;;;11.08;99.47
80401;BME280;69727;53.132;8.230;2024-02-15T06:37:52;101504.38;;;11.15;99.29
80401;BME280;69727;53.132;8.230;2024-02-15T06:40:36;101507.63;;;11.10;99.58
80401;BME280;69727;53.132;8.230;2024-02-15T06:43:02;101513.47;;;11.14;99.33
80401;BME280;69727;53.132;8.230;2024-02-15T06:45:28;101509.75;;;11.15;99.15
80401;BME280;69727;53.132;8.230;2024-02-15T06:47:57;101512.09;;;11.18;99.29
80401;BME280;69727;53.132;8.230;2024-02-15T06:50:22;101506.72;;;11.18;99.36
80401;BME280;69727;53.132;8.230;2024-02-15T06:52:48;101517.13;;;11.21;99.09
80401;BME280;69727;53.132;8.230;2024-02-15T06:55:17;101517.28;;;11.19;99.04
80401;BME280;69727;53.132;8.230;2024-02-15T06:57:44;101516.91;;;11.22;99.24
80401;BME280;69727;53.132;8.230;2024-02-15T07:00:10;101507.81;;;11.23;99.15
80401;BME280;69727;53.132;8.230;2024-02-15T07:02:41;101509.56;;;11.16;99.13
80401;BME280;69727;53.132;8.230;2024-02-15T07:05:09;101509.56;;;11.16;99.39
80401;BME280;69727;53.132;8.230;2024-02-15T07:07:35;101521.53;;;11.14;99.18
80401;BME280;69727;53.132;8.230;2024-02-15T07:10:01;101510.06;;;11.20;99.60
80401;BME280;69727;53.132;8.230;2024-02-15T07:12:28;101516.06;;;11.22;99.16
80401;BME280;69727;53.132;8.230;2024-02-15T07:14:53;101526.72;;;11.15;99.26
80401;BME280;69727;53.132;8.230;2024-02-15T07:17:20;101510.06;;;11.20;99.29
80401;BME280;69727;53.132;8.230;2024-02-15T07:19:45;101509.31;;;11.26;99.34
80401;BME280;69727;53.132;8.230;2024-02-15T07:22:16;101512.78;;;11.34;99.17
80401;BME280;69727;53.132;8.230;2024-02-15T07:24:42;101510.59;;;11.30;99.03
80401;BME280;69727;53.132;8.230;2024-02-15T07:27:07;101510.34;;;11.25;99.21
80401;BME280;69727;53.132;8.230;2024-02-15T07:29:34;101512.84;;;11.26;99.38
80401;BME280;69727;53.132;8.230;2024-02-15T07:32:03;101508.66;;;11.24;99.51
80401;BME280;69727;53.132;8.230;2024-02-15T07:34:30;101512.84;;;11.26;99.28
80401;BME280;69727;53.132;8.230;2024-02-15T07:36:55;101522.38;;;11.29;99.18
80401;BME280;69727;53.132;8.230;2024-02-15T07:39:23;101517.09;;;11.35;99.39
80401;BME280;69727;53.132;8.230;2024-02-15T07:41:51;101521.19;;;11.31;99.27
80401;BME280;69727;53.132;8.230;2024-02-15T07:44:16;101525.91;;;11.29;99.15
80401;BME280;69727;53.132;8.230;2024-02-15T07:46:43;101529.84;;;11.41;98.84
80401;BME280;69727;53.132;8.230;2024-02-15T07:49:09;101531.03;;;11.39;99.01
80401;BME280;69727;53.132;8.230;2024-02-15T07:51:34;101539.25;;;11.37;98.60
80401;BME280;69727;53.132;8.230;2024-02-15T07:54:00;101529.63;;;11.43;99.03
80401;BME280;69727;53.132;8.230;2024-02-15T07:56:26;101523.63;;;11.41;98.98
80401;BME280;69727;53.132;8.230;2024-02-15T07:58:52;101524.25;;;11.43;98.95
80401;BME280;69727;53.132;8.230;2024-02-15T08:01:18;101520.00;;;11.34;99.26
80401;BME280;69727;53.132;8.230;2024-02-15T08:03:46;101526.22;;;11.34;99.12
80401;BME280;69727;53.132;8.230;2024-02-15T08:06:13;101518.59;;;11.38;99.41
80401;BME280;69727;53.132;8.230;2024-02-15T08:08:41;101525.91;;;11.44;98.97
80401;BME280;69727;53.132;8.230;2024-02-15T08:11:07;101518.78;;;11.36;99.22
80401;BME280;69727;53.132;8.230;2024-02-15T08:13:50;101528.16;;;11.40;99.25
80401;BME280;69727;53.132;8.230;2024-02-15T08:16:19;101519.44;;;11.38;99.25
80401;BME280;69727;53.132;8.230;2024-02-15T08:18:47;101520.53;;;11.44;99.13
80401;BME280;69727;53.132;8.230;2024-02-15T08:21:12;101516.84;;;11.45;98.89
80401;BME280;69727;53.132;8.230;2024-02-15T08:23:38;101506.00;;;11.38;99.23
80401;BME280;69727;53.132;8.230;2024-02-15T08:26:04;101510.81;;;11.43;98.97
80401;BME280;69727;53.132;8.230;2024-02-15T08:28:29;101512.13;;;11.47;98.81
80401;BME280;69727;53.132;8.230;2024-02-15T08:30:55;101510.81;;;11.43;99.00
80401;BME280;69727;53.132;8.230;2024-02-15T08:33:22;101513.50;;;11.43;99.14
80401;BME280;69727;53.132;8.230;2024-02-15T08:35:49;101505.72;;;11.48;99.06
80401;BME280;69727;53.132;8.230;2024-02-15T08:38:14;101505.16;;;11.53;98.73
80401;BME280;69727;53.132;8.230;2024-02-15T08:40:39;101494.97;;;11.48;99.11
80401;BME280;69727;53.132;8.230;2024-02-15T08:43:05;101500.63;;;11.53;98.89
80401;BME280;69727;53.132;8.230;2024-02-15T08:45:31;101510.34;;;11.54;98.71
80401;BME280;69727;53.132;8.230;2024-02-15T08:47:56;101500.25;;;11.56;98.86
80401;BME280;69727;53.132;8.230;2024-02-15T08:50:22;101499.22;;;11.57;98.62
80401;BME280;69727;53.132;8.230;2024-02-15T08:52:49;101508.13;;;11.58;98.76
80401;BME280;69727;53.132;8.230;2024-02-15T08:55:15;101492.72;;;11.52;98.52
80401;BME280;69727;53.132;8.230;2024-02-15T08:57:40;101501.28;;;11.55;98.80
80401;BME280;69727;53.132;8.230;2024-02-15T09:00:06;101493.75;;;11.65;98.77
80401;BME280;69727;53.132;8.230;2024-02-15T09:02:39;101489.13;;;11.59;98.82
80401;BME280;69727;53.132;8.230;2024-02-15T09:05:05;101507.19;;;11.65;98.31
80401;BME280;69727;53.132;8.230;2024-02-15T09:07:31;101493.13;;;11.63;98.51
80401;BME280;69727;53.132;8.230;2024-02-15T09:09:57;101485.66;;;11.65;98.62
80401;BME280;69727;53.132;8.230;2024-02-15T09:12:22;101487.44;;;11.58;98.20
80401;BME280;69727;53.132;8.230;2024-02-15T09:14:47;101489.50;;;11.56;98.49
80401;BME280;69727;53.132;8.230;2024-02-15T09:17:13;101491.22;;;11.64;98.46
80401;BME280;69727;53.132;8.230;2024-02-15T09:19:39;101489.94;;;11.60;98.72
80401;BME280;69727;53.132;8.230;2024-02-15T09:22:04;101492.47;;;11.61;98.91
80401;BME280;69727;53.132;8.230;2024-02-15T09:24:30;101495.41;;;11.66;98.65
80401;BME280;69727;53.132;8.230;2024-02-15T09:26:58;101498.69;;;11.62;98.54
80401;BME280;69727;53.132;8.230;2024-02-15T09:29:23;101495.81;;;11.63;98.67
80401;BME280;69727;53.132;8.230;2024-02-15T09:31:49;101499.13;;;11.65;98.40
80401;BME280;69727;53.132;8.230;2024-02-15T09:34:15;101500.06;;;11.58;98.69
80401;BME280;69727;53.132;8.230;2024-02-15T09:36:40;101498.19;;;11.58;98.71
80401;BME280;69727;53.132;8.230;2024-02-15T09:39:06;101498.28;;;11.50;98.97
80401;BME280;69727;53.132;8.230;2024-02-15T09:41:32;101501.63;;;11.52;99.23
80401;BME280;69727;53.132;8.230;2024-02-15T09:43:59;101502.28;;;11.54;99.04
80401;BME280;69727;53.132;8.230;2024-02-15T09:46:24;101499.78;;;11.53;99.15
80401;BME280;69727;53.132;8.230;2024-02-15T09:48:51;101495.81;;;11.49;99.45
80401;BME280;69727;53.132;8.230;2024-02-15T09:51:25;101496.91;;;11.54;99.25
80401;BME280;69727;53.132;8.230;2024-02-15T09:53:51;101500.25;;;11.56;98.95
80401;BME280;69727;53.132;8.230;2024-02-15T09:56:17;101497.44;;;11.64;98.96
80401;BME280;69727;53.132;8.230;2024-02-15T09:58:43;101510.28;;;11.62;99.04
80401;BME280;69727;53.132;8.230;2024-02-15T10:01:10;101505.63;;;11.56;99.09
80401;BME280;69727;53.132;8.230;2024-02-15T10:03:40;101499.69;;;11.61;99.05
80401;BME280;69727;53.132;8.230;2024-02-15T10:06:05;101500.88;;;11.58;99.16
80401;BME280;69727;53.132;8.230;2024-02-15T10:08:31;101499.69;;;11.61;99.13
80401;BME280;69727;53.132;8.230;2024-02-15T10:11:09;101497.44;;;11.64;99.00
80401;BME280;69727;53.132;8.230;2024-02-15T10:13:35;101501.19;;;11.63;98.84
80401;BME280;69727;53.132;8.230;2024-02-15T10:16:20;101492.38;;;11.55;99.35
80401;BME280;69727;53.132;8.230;2024-02-15T10:18:50;101499.88;;;11.59;99.38
80401;BME280;69727;53.132;8.230;2024-02-15T10:21:28;101489.59;;;11.63;99.14
80401;BME280;69727;53.132;8.230;2024-02-15T10:24:08;101481.41;;;11.71;99.17
80401;BME280;69727;53.132;8.230;2024-02-15T10:26:35;101479.03;;;11.76;98.90
80401;BME280;69727;53.132;8.230;2024-02-15T10:29:11;101486.31;;;11.67;99.16
80401;BME280;69727;53.132;8.230;2024-02-15T10:31:38;101480.94;;;11.67;99.07
80401;BME280;69727;53.132;8.230;2024-02-15T10:34:07;101475.09;;;11.64;99.09
80401;BME280;69727;53.132;8.230;2024-02-15T10:36:35;101480.03;;;11.60;99.09
80401;BME280;69727;53.132;8.230;2024-02-15T10:39:14;101477.78;;;11.64;99.38
80401;BME280;69727;53.132;8.230;2024-02-15T10:41:43;101481.97;;;11.66;99.06
80401;BME280;69727;53.132;8.230;2024-02-15T10:44:15;101481.53;;;11.63;99.21
80401;BME280;69727;53.132;8.230;2024-02-15T10:46:41;101480.69;;;11.62;99.10
80401;BME280;69727;53.132;8.230;2024-02-15T10:49:06;101488.53;;;11.64;99.58
80401;BME280;69727;53.132;8.230;2024-02-15T10:51:33;101483.63;;;11.67;99.28
80401;BME280;69727;53.132;8.230;2024-02-15T10:54:02;101478.44;;;11.66;99.08
80401;BME280;69727;53.132;8.230;2024-02-15T10:56:37;101482.63;;;11.68;99.13
80401;BME280;69727;53.132;8.230;2024-02-15T10:59:18;101482.81;;;11.67;99.08
80401;BME280;69727;53.132;8.230;2024-02-15T11:01:46;101477.41;;;11.67;98.92
80401;BME280;69727;53.132;8.230;2024-02-15T11:04:17;101472.88;;;11.67;99.12
80401;BME280;69727;53.132;8.230;2024-02-15T11:06:47;101471.69;;;11.70;99.15
80401;BME280;69727;53.132;8.230;2024-02-15T11:09:16;101461.53;;;11.72;98.94
80401;BME280;69727;53.132;8.230;2024-02-15T11:11:42;101465.59;;;11.76;98.84
80401;BME280;69727;53.132;8.230;2024-02-15T11:14:31;101465.06;;;11.72;98.93
80401;BME280;69727;53.132;8.230;2024-02-15T11:17:01;101466.19;;;11.78;98.86
80401;BME280;69727;53.132;8.230;2024-02-15T11:21:58;101467.88;;;11.79;98.78
80401;BME280;69727;53.132;8.230;2024-02-15T11:24:30;101458.13;;;11.78;98.70
80401;BME280;69727;53.132;8.230;2024-02-15T11:27:03;101457.94;;;11.79;98.79
80401;BME280;69727;53.132;8.230;2024-02-15T11:29:49;101461.13;;;11.83;98.69
80401;BME280;69727;53.132;8.230;2024-02-15T11:40:15;101445.66;;;11.92;98.74
80401;BME280;69727;53.132;8.230;2024-02-15T11:42:42;101445.78;;;11.98;98.80
80401;BME280;69727;53.132;8.230;2024-02-15T11:45:08;101447.41;;;11.99;98.43
80401;BME280;69727;53.132;8.230;2024-02-15T11:47:37;101440.81;;;12.02;98.91
80401;BME280;69727;53.132;8.230;2024-02-15T11:50:04;101431.56;;;12.04;98.74
80401;BME280;69727;53.132;8.230;2024-02-15T11:52:30;101436.28;;;12.02;98.97
80401;BME280;69727;53.132;8.230;2024-02-15T11:55:22;101432.00;;;12.08;98.82
80401;BME280;69727;53.132;8.230;2024-02-15T12:00:26;101433.53;;;12.17;98.76
80401;BME280;69727;53.132;8.230;2024-02-15T12:03:13;101435.78;;;12.13;98.83
80401;BME280;69727;53.132;8.230;2024-02-15T12:05:58;101427.13;;;12.18;98.59
80401;BME280;69727;53.132;8.230;2024-02-15T12:08:46;101430.19;;;12.15;98.53
80401;BME280;69727;53.132;8.230;2024-02-15T12:11:30;101432.63;;;12.10;98.61
80401;BME280;69727;53.132;8.230;2024-02-15T12:14:15;101434.56;;;12.16;98.70
80401;BME280;69727;53.132;8.230;2024-02-15T12:17:03;101440.19;;;12.21;98.33
80401;BME280;69727;53.132;8.230;2024-02-15T12:19:49;101435.59;;;12.15;98.25
80401;BME280;69727;53.132;8.230;2024-02-15T12:22:44;101437.38;;;12.08;98.17
80401;BME280;69727;53.132;8.230;2024-02-15T12:25:14;101436.66;;;11.99;98.52
80401;BME280;69727;53.132;8.230;2024-02-15T12:27:41;101428.38;;;12.01;98.25
80401;BME280;69727;53.132;8.230;2024-02-15T12:30:16;101432.31;;;11.98;98.29
80401;BME280;69727;53.132;8.230;2024-02-15T12:32:46;101437.31;;;12.01;98.28
80401;BME280;69727;53.132;8.230;2024-02-15T12:35:14;101437.47;;;12.00;98.27
80401;BME280;69727;53.132;8.230;2024-02-15T12:40:38;101423.97;;;11.93;98.51
80401;BME280;69727;53.132;8.230;2024-02-15T12:43:07;101436.22;;;11.96;98.30
80401;BME280;69727;53.132;8.230;2024-02-15T12:45:36;101432.31;;;11.98;98.56
80401;BME280;69727;53.132;8.230;2024-02-15T12:48:06;101422.50;;;11.91;98.52
80401;BME280;69727;53.132;8.230;2024-02-15T12:50:31;101425.44;;;11.96;98.21
80401;BME280;69727;53.132;8.230;2024-02-15T12:52:58;101416.84;;;11.86;98.65
80401;BME280;69727;53.132;8.230;2024-02-15T12:55:35;101431.84;;;11.95;98.52
80401;BME280;69727;53.132;8.230;2024-02-15T12:58:03;101429.81;;;11.97;98.73
80401;BME280;69727;53.132;8.230;2024-02-15T13:00:30;101426.72;;;12.00;98.25
80401;BME280;69727;53.132;8.230;2024-02-15T13:03:03;101415.28;;;11.91;98.39
80401;BME280;69727;53.132;8.230;2024-02-15T13:05:29;101421.16;;;12.01;98.55
80401;BME280;69727;53.132;8.230;2024-02-15T13:07:56;101418.34;;;12.09;97.54
80401;BME280;69727;53.132;8.230;2024-02-15T13:10:28;101414.16;;;12.07;97.66